createdAt,value
2018-12-12T00:01:55.402Z,94889.43
2018-12-12T00:04:21.857Z,94891.08
2018-12-12T00:06:48.322Z,94892.91
2018-12-12T00:09:14.680Z,94890.33
2018-12-12T00:11:41.032Z,94896.16
2018-12-12T00:14:07.440Z,94895.09
2018-12-12T00:16:33.836Z,94900.13
2018-12-12T00:19:00.164Z,94906.40
2018-12-12T00:21:26.485Z,94908.16
2018-12-12T00:23:52.813Z,94905.14
2018-12-12T00:26:19.200Z,94911.44
2018-12-12T00:28:45.596Z,94911.68
2018-12-12T00:31:11.999Z,94912.14
2018-12-12T00:33:38.354Z,94912.14
2018-12-12T00:36:04.668Z,94914.70
2018-12-12T00:38:31.031Z,94915.66
2018-12-12T00:40:57.375Z,94913.03
2018-12-12T00:43:23.823Z,94922.26
2018-12-12T00:45:50.122Z,94919.45
2018-12-12T00:48:16.464Z,94922.84
2018-12-12T00:50:42.789Z,94919.53
2018-12-12T00:53:09.164Z,94923.36
2018-12-12T00:55:35.492Z,94924.18
2018-12-12T00:58:01.821Z,94921.98
2018-12-12T01:00:28.407Z,94922.53
2018-12-12T01:02:54.750Z,94925.86
2018-12-12T01:05:21.098Z,94918.53
2018-12-12T01:07:47.533Z,94923.35
2018-12-12T01:10:13.870Z,94925.44
2018-12-12T01:12:40.205Z,94922.84
2018-12-12T01:15:06.537Z,94923.97
2018-12-12T01:17:35.082Z,94923.69
2018-12-12T01:20:01.519Z,94926.93
2018-12-12T01:22:27.815Z,94927.42
2018-12-12T01:24:54.153Z,94927.42
2018-12-12T01:27:20.676Z,94922.23
2018-12-12T01:29:47.065Z,94925.55
2018-12-12T01:32:13.407Z,94920.94
2018-12-12T01:34:39.777Z,94918.92
2018-12-12T01:37:06.104Z,94914.95
2018-12-12T01:39:32.435Z,94920.58
2018-12-12T01:41:58.768Z,94914.77
2018-12-12T01:44:25.099Z,94920.20
2018-12-12T01:46:51.425Z,94923.59
2018-12-12T01:49:17.826Z,94922.69
2018-12-12T01:51:44.254Z,94923.57
2018-12-12T01:54:10.596Z,94922.47
2018-12-12T01:56:36.925Z,94919.35
2018-12-12T01:59:03.255Z,94921.70
2018-12-12T02:01:29.603Z,94914.98
2018-12-12T02:03:56.002Z,94916.36
2018-12-12T02:06:22.346Z,94918.83
2018-12-12T02:08:48.697Z,94914.19
2018-12-12T02:11:15.039Z,94918.80
2018-12-12T02:13:41.427Z,94922.95
2018-12-12T02:16:07.763Z,94921.28
2018-12-12T02:18:34.093Z,94922.80
2018-12-12T02:21:00.509Z,94918.83
2018-12-12T02:23:26.875Z,94916.53
2018-12-12T02:25:53.273Z,94919.44
2018-12-12T02:28:19.591Z,94924.84
2018-12-12T02:30:45.938Z,94928.59
2018-12-12T02:33:12.273Z,94938.46
2018-12-12T02:35:38.614Z,94936.28
2018-12-12T02:38:05.001Z,94934.32
2018-12-12T02:40:31.356Z,94929.11
2018-12-12T02:42:57.737Z,94926.22
2018-12-12T02:45:24.069Z,94922.84
2018-12-12T02:47:50.466Z,94918.67
2018-12-12T02:50:16.794Z,94913.54
2018-12-12T02:52:43.134Z,94922.18
2018-12-12T02:55:09.515Z,94908.89
2018-12-12T02:57:35.863Z,94920.26
2018-12-12T03:00:02.279Z,94918.61
2018-12-12T03:02:29.569Z,94916.27
2018-12-12T03:04:55.920Z,94915.13
2018-12-12T03:07:22.331Z,94909.53
2018-12-12T03:09:48.725Z,94912.43
2018-12-12T03:12:15.051Z,94916.65
2018-12-12T03:14:41.391Z,94917.84
2018-12-12T03:17:07.732Z,94918.41
2018-12-12T03:19:34.115Z,94917.61
2018-12-12T03:22:00.493Z,94908.39
2018-12-12T03:24:26.815Z,94910.83
2018-12-12T03:26:53.149Z,94913.53
2018-12-12T03:29:19.506Z,94905.73
2018-12-12T03:31:45.872Z,94904.08
2018-12-12T03:34:12.201Z,94911.50
2018-12-12T03:36:38.538Z,94910.88
2018-12-12T03:39:04.875Z,94904.09
2018-12-12T03:41:31.245Z,94910.52
2018-12-12T03:43:57.573Z,94912.85
2018-12-12T03:46:23.970Z,94910.45
2018-12-12T03:48:50.261Z,94910.09
2018-12-12T03:51:16.615Z,94912.80
2018-12-12T03:53:42.967Z,94914.31
2018-12-12T03:56:09.298Z,94919.00
2018-12-12T03:58:35.629Z,94924.17
2018-12-12T04:01:01.972Z,94926.74
2018-12-12T04:03:28.352Z,94921.01
2018-12-12T04:05:54.650Z,94932.58
2018-12-12T04:08:21.021Z,94934.46
2018-12-12T04:10:47.355Z,94929.77
2018-12-12T04:13:13.698Z,94933.08
2018-12-12T04:15:40.035Z,94931.69
2018-12-12T04:18:06.368Z,94934.48
2018-12-12T04:20:32.696Z,94930.39
2018-12-12T04:22:59.027Z,94930.39
2018-12-12T04:25:25.419Z,94937.41
2018-12-12T04:27:51.793Z,94933.78
2018-12-12T04:30:18.183Z,94931.94
2018-12-12T04:32:44.525Z,94935.30
2018-12-12T04:35:10.845Z,94932.16
2018-12-12T04:37:37.207Z,94937.99
2018-12-12T04:40:03.616Z,94932.98
2018-12-12T04:42:29.874Z,94936.50
2018-12-12T04:44:56.215Z,94940.92
2018-12-12T04:47:22.549Z,94943.16
2018-12-12T04:49:49.163Z,94947.97
2018-12-12T04:52:15.573Z,94948.23
2018-12-12T04:54:41.861Z,94945.52
2018-12-12T04:57:08.191Z,94952.78
2018-12-12T04:59:34.569Z,94952.91
2018-12-12T05:02:00.857Z,94960.86
2018-12-12T05:04:27.273Z,94966.69
2018-12-12T05:06:55.994Z,94965.99
2018-12-12T05:09:19.955Z,94969.16
2018-12-12T05:11:46.251Z,94966.59
2018-12-12T05:14:12.588Z,94970.78
2018-12-12T05:16:39.007Z,94975.94
2018-12-12T05:19:05.331Z,94973.25
2018-12-12T05:21:31.662Z,94978.75
2018-12-12T05:23:58.006Z,94979.80
2018-12-12T05:26:24.347Z,94973.96
2018-12-12T05:28:50.692Z,94973.01
2018-12-12T05:31:17.025Z,94974.05
2018-12-12T05:33:43.365Z,94984.38
2018-12-12T05:36:09.708Z,94986.81
2018-12-12T05:38:36.031Z,94985.52
2018-12-12T05:41:02.416Z,94988.33
2018-12-12T05:43:28.749Z,94982.83
2018-12-12T05:45:55.093Z,94985.28
2018-12-12T05:48:21.475Z,94981.77
2018-12-12T05:50:47.817Z,94984.72
2018-12-12T05:53:14.240Z,94987.17
2018-12-12T05:55:40.593Z,94985.18
2018-12-12T05:58:06.983Z,94991.27
2018-12-12T06:00:33.316Z,94998.53
2018-12-12T06:02:59.642Z,95000.61
2018-12-12T06:05:26.025Z,94999.81
2018-12-12T06:07:52.448Z,95004.47
2018-12-12T06:10:18.735Z,95007.06
2018-12-12T06:12:45.114Z,95004.73
2018-12-12T06:15:11.442Z,95006.02
2018-12-12T06:17:37.777Z,95005.08
2018-12-12T06:20:04.105Z,95004.34
2018-12-12T06:22:30.454Z,95006.48
2018-12-12T06:24:56.802Z,95009.88
2018-12-12T06:27:23.167Z,95008.23
2018-12-12T06:29:49.530Z,95011.73
2018-12-12T06:32:15.874Z,95018.76
2018-12-12T06:34:42.194Z,95017.83
2018-12-12T06:37:08.530Z,95018.05
2018-12-12T06:39:34.860Z,95018.85
2018-12-12T06:42:05.359Z,95021.55
2018-12-12T06:44:31.690Z,95024.27
2018-12-12T06:46:58.027Z,95023.91
2018-12-12T06:49:24.373Z,95026.21
2018-12-12T06:51:50.714Z,95031.95
2018-12-12T06:54:18.974Z,95022.70
2018-12-12T06:56:45.316Z,95025.72
2018-12-12T06:59:11.662Z,95028.20
2018-12-12T07:01:38.052Z,95034.33
2018-12-12T07:04:04.495Z,95035.47
2018-12-12T07:06:30.901Z,95037.57
2018-12-12T07:08:57.216Z,95036.86
2018-12-12T07:11:23.617Z,95039.99
2018-12-12T07:13:50.383Z,95040.79
2018-12-12T07:16:16.706Z,95044.77
2018-12-12T07:18:43.051Z,95043.89
2018-12-12T07:21:09.381Z,95044.66
2018-12-12T07:23:36.279Z,95045.86
2018-12-12T07:26:03.658Z,95057.06
2018-12-12T07:28:30.020Z,95058.22
2018-12-12T07:30:56.371Z,95056.59
2018-12-12T07:33:22.868Z,95063.59
2018-12-12T07:35:49.569Z,95060.09
2018-12-12T07:38:15.898Z,95065.49
2018-12-12T07:40:42.277Z,95061.16
2018-12-12T07:43:08.608Z,95061.31
2018-12-12T07:45:35.079Z,95064.59
2018-12-12T07:48:01.728Z,95071.23
2018-12-12T07:50:27.816Z,95071.52
2018-12-12T07:52:54.203Z,95078.51
2018-12-12T07:55:20.583Z,95079.77
2018-12-12T07:57:47.270Z,95076.28
2018-12-12T08:00:13.773Z,95079.38
2018-12-12T08:02:40.140Z,95083.82
2018-12-12T08:05:06.507Z,95083.74
2018-12-12T08:07:32.841Z,95089.31
2018-12-12T08:09:59.325Z,95086.73
2018-12-12T08:12:25.654Z,95092.36
2018-12-12T08:14:52.065Z,95092.34
2018-12-12T08:17:18.469Z,95088.58
2018-12-12T08:19:45.112Z,95098.19
2018-12-12T08:22:11.487Z,95095.40
2018-12-12T08:24:37.846Z,95095.09
2018-12-12T08:27:05.067Z,95101.82
2018-12-12T08:29:31.533Z,95105.08
2018-12-12T08:32:00.109Z,95106.16
2018-12-12T08:34:26.467Z,95105.44
2018-12-12T08:36:52.831Z,95106.73
2018-12-12T08:39:19.206Z,95106.44
2018-12-12T08:41:46.621Z,95110.34
2018-12-12T08:44:12.948Z,95113.47
2018-12-12T08:46:39.471Z,95112.34
2018-12-12T08:49:05.863Z,95116.52
2018-12-12T08:51:33.407Z,95111.67
2018-12-12T08:53:59.847Z,95111.20
2018-12-12T08:56:28.190Z,95113.64
2018-12-12T08:58:54.622Z,95112.23
2018-12-12T09:01:21.060Z,95113.94
2018-12-12T09:03:47.896Z,95116.37
2018-12-12T09:06:16.448Z,95114.61
2018-12-12T09:08:42.947Z,95113.83
2018-12-12T09:11:09.316Z,95115.08
2018-12-12T09:13:35.663Z,95110.80
2018-12-12T09:16:02.047Z,95110.74
2018-12-12T09:18:28.455Z,95108.31
2018-12-12T09:20:54.894Z,95108.56
2018-12-12T09:23:21.253Z,95107.34
2018-12-12T09:25:47.610Z,95106.59
2018-12-12T09:28:13.988Z,95104.43
2018-12-12T09:30:40.346Z,95100.50
2018-12-12T09:33:06.694Z,95102.03
2018-12-12T09:35:33.182Z,95104.64
2018-12-12T09:37:59.526Z,95096.33
2018-12-12T09:40:25.923Z,95101.78
2018-12-12T09:42:52.260Z,95095.56
2018-12-12T09:45:21.678Z,95093.20
2018-12-12T09:47:45.005Z,95088.92
2018-12-12T09:50:11.392Z,95086.71
2018-12-12T09:52:37.820Z,95083.66
2018-12-12T09:55:04.225Z,95082.11
2018-12-12T09:57:30.620Z,95082.37
2018-12-12T09:59:57.055Z,95074.19
2018-12-12T10:02:23.390Z,95068.98
2018-12-12T10:04:49.779Z,95064.77
2018-12-12T10:07:16.120Z,95068.59
2018-12-12T10:09:42.470Z,95060.16
2018-12-12T10:12:08.962Z,95057.31
2018-12-12T10:14:35.344Z,95057.91
2018-12-12T10:17:01.729Z,95059.78
2018-12-12T10:19:28.076Z,95061.66
2018-12-12T10:21:54.510Z,95060.41
2018-12-12T10:24:20.804Z,95056.44
2018-12-12T10:26:47.164Z,95058.91
2018-12-12T10:29:13.498Z,95060.86
2018-12-12T10:31:40.026Z,95056.70
2018-12-12T10:34:06.811Z,95051.04
2018-12-12T10:36:33.406Z,95056.13
2018-12-12T10:38:59.746Z,95058.81
2018-12-12T10:41:26.381Z,95053.41
2018-12-12T10:43:52.752Z,95053.52
2018-12-12T10:46:19.145Z,95049.70
2018-12-12T10:48:45.550Z,95043.35
2018-12-12T10:51:11.894Z,95046.04
2018-12-12T10:53:38.375Z,95050.55
2018-12-12T10:56:04.879Z,95036.89
2018-12-12T10:58:31.161Z,95036.73
2018-12-12T11:00:57.623Z,95042.25
2018-12-12T11:03:23.983Z,95036.27
2018-12-12T11:05:50.331Z,95029.58
2018-12-12T11:08:16.830Z,95038.02
2018-12-12T11:10:43.238Z,95042.05
2018-12-12T11:13:09.596Z,95045.00
2018-12-12T11:15:35.969Z,95043.14
2018-12-12T11:18:02.314Z,95038.37
2018-12-12T11:20:28.708Z,95041.28
2018-12-12T11:22:57.309Z,95039.78
2018-12-12T11:25:23.707Z,95042.25
2018-12-12T11:27:50.037Z,95034.88
2018-12-12T11:30:16.368Z,95029.00
2018-12-12T11:32:43.048Z,95027.55
2018-12-12T11:35:09.390Z,95022.62
2018-12-12T11:37:36.870Z,95026.60
2018-12-12T11:40:03.292Z,95034.66
2018-12-12T11:42:29.609Z,95031.69
2018-12-12T11:44:55.988Z,95030.96
2018-12-12T11:47:22.319Z,95024.17
2018-12-12T11:49:48.662Z,95029.92
2018-12-12T11:52:15.094Z,95031.99
2018-12-12T11:54:41.436Z,95029.55
2018-12-12T11:57:10.154Z,95028.69
2018-12-12T11:59:36.497Z,95031.31
2018-12-12T12:02:05.062Z,95026.23
2018-12-12T12:04:31.470Z,95032.46
2018-12-12T12:06:57.825Z,95029.83
2018-12-12T12:09:24.169Z,95034.13
2018-12-12T12:11:50.539Z,95030.14
2018-12-12T12:14:16.896Z,95024.77
2018-12-12T12:16:44.360Z,95033.20
2018-12-12T12:19:10.705Z,95027.71
2018-12-12T12:21:37.091Z,95027.91
2018-12-12T12:24:03.463Z,95028.02
2018-12-12T12:26:29.934Z,95031.78
2018-12-12T12:28:56.276Z,95031.27
2018-12-12T12:31:22.607Z,95032.28
2018-12-12T12:33:48.997Z,95034.02
2018-12-12T12:36:15.403Z,95037.91
2018-12-12T12:38:41.900Z,95030.63
2018-12-12T12:41:08.332Z,95031.16
2018-12-12T12:43:34.854Z,95039.84
2018-12-12T12:46:01.218Z,95040.98
2018-12-12T12:48:27.621Z,95044.83
2018-12-12T12:50:54.592Z,95047.84
2018-12-12T12:53:21.005Z,95050.11
2018-12-12T12:55:47.342Z,95048.70
2018-12-12T12:58:13.705Z,95050.55
2018-12-12T13:00:40.110Z,95051.16
2018-12-12T13:03:06.456Z,95047.39
2018-12-12T13:05:32.793Z,95049.08
2018-12-12T13:07:59.165Z,95057.98
2018-12-12T13:10:25.552Z,95053.69
2018-12-12T13:12:51.977Z,95056.42
2018-12-12T13:15:18.310Z,95058.34
2018-12-12T13:17:45.939Z,95065.25
2018-12-12T13:20:13.413Z,95064.75
2018-12-12T13:22:39.838Z,95066.47
2018-12-12T13:25:06.186Z,95067.53
2018-12-12T13:27:32.597Z,95067.34
2018-12-12T13:29:58.924Z,95070.37
2018-12-12T13:32:25.278Z,95071.47
2018-12-12T13:34:51.661Z,95075.86
2018-12-12T13:37:18.441Z,95076.87
2018-12-12T13:39:44.860Z,95074.08
2018-12-12T13:42:11.400Z,95082.58
2018-12-12T13:44:38.210Z,95085.58
2018-12-12T13:47:04.563Z,95086.61
2018-12-12T13:49:31.923Z,95088.14
2018-12-12T13:51:59.334Z,95087.84
2018-12-12T13:54:26.220Z,95091.78
2018-12-12T13:56:52.565Z,95093.44
2018-12-12T13:59:19.007Z,95099.63
2018-12-12T14:01:45.389Z,95104.02
2018-12-12T14:04:11.795Z,95099.62
2018-12-12T14:06:38.131Z,95102.82
2018-12-12T14:09:04.462Z,95101.66
2018-12-12T14:11:30.906Z,95109.53
2018-12-12T14:13:57.274Z,95105.05
2018-12-12T14:16:23.741Z,95104.84
2018-12-12T14:18:50.176Z,95113.16
2018-12-12T14:21:16.686Z,95108.24
2018-12-12T14:23:43.222Z,95115.95
2018-12-12T14:26:09.788Z,95116.56
2018-12-12T14:28:36.098Z,95112.55
2018-12-12T14:31:02.484Z,95116.32
2018-12-12T14:33:28.882Z,95115.75
2018-12-12T14:36:00.930Z,95115.97
2018-12-12T14:38:21.778Z,95121.31
2018-12-12T14:40:48.222Z,95110.95
2018-12-12T14:43:14.563Z,95117.27
2018-12-12T14:45:40.943Z,95113.11
2018-12-12T14:48:07.381Z,95118.09
2018-12-12T14:50:33.721Z,95118.41
2018-12-12T14:53:00.097Z,95120.81
2018-12-12T14:55:26.456Z,95119.27
2018-12-12T14:57:52.834Z,95125.05
2018-12-12T15:00:19.419Z,95124.37
2018-12-12T15:02:45.756Z,95124.19
2018-12-12T15:05:12.197Z,95127.34
2018-12-12T15:07:41.215Z,95130.40
2018-12-12T15:10:07.574Z,95128.89
2018-12-12T15:12:33.971Z,95128.21
2018-12-12T15:15:00.676Z,95126.48
2018-12-12T15:17:27.062Z,95125.02
2018-12-12T15:19:53.518Z,95123.05
2018-12-12T15:22:19.873Z,95123.37
2018-12-12T15:24:46.263Z,95127.60
2018-12-12T15:27:12.709Z,95121.22
2018-12-12T15:29:39.095Z,95124.34
2018-12-12T15:32:05.435Z,95123.91
2018-12-12T15:34:31.820Z,95126.48
2018-12-12T15:36:58.181Z,95128.81
2018-12-12T15:39:24.674Z,95135.27
2018-12-12T15:41:51.027Z,95130.11
2018-12-12T15:44:17.359Z,95129.28
2018-12-12T15:46:43.695Z,95132.08
2018-12-12T15:49:10.015Z,95130.22
2018-12-12T15:51:36.370Z,95132.48
2018-12-12T15:54:02.760Z,95136.53
2018-12-12T15:56:29.171Z,95136.92
2018-12-12T15:58:55.781Z,95138.61
2018-12-12T16:01:22.092Z,95134.72
2018-12-12T16:03:48.441Z,95135.84
2018-12-12T16:06:14.801Z,95139.47
2018-12-12T16:08:41.293Z,95130.86
2018-12-12T16:11:08.434Z,95131.77
2018-12-12T16:13:33.999Z,95133.78
2018-12-12T16:16:00.343Z,95127.56
2018-12-12T16:18:26.779Z,95123.59
2018-12-12T16:20:53.116Z,95123.74
2018-12-12T16:23:19.459Z,95123.29
2018-12-12T16:25:45.813Z,95126.27
2018-12-12T16:28:12.221Z,95131.07
2018-12-12T16:30:38.511Z,95133.16
2018-12-12T16:33:04.901Z,95137.81
2018-12-12T16:35:31.229Z,95135.77
2018-12-12T16:37:57.630Z,95135.12
2018-12-12T16:40:23.996Z,95136.96
2018-12-12T16:42:50.341Z,95137.71
2018-12-12T16:45:16.663Z,95148.97
2018-12-12T16:47:43.213Z,95145.46
2018-12-12T16:50:09.540Z,95142.84
2018-12-12T16:52:35.931Z,95147.43
2018-12-12T16:55:02.352Z,95146.61
2018-12-12T16:57:28.700Z,95143.99
2018-12-12T16:59:55.101Z,95140.11
2018-12-12T17:02:21.448Z,95144.49
2018-12-12T17:04:47.839Z,95153.20
2018-12-12T17:07:14.438Z,95143.16
2018-12-12T17:09:40.760Z,95150.77
2018-12-12T17:12:07.143Z,95154.52
2018-12-12T17:14:33.543Z,95154.77
2018-12-12T17:17:00.031Z,95151.94
2018-12-12T17:19:26.432Z,95161.45
2018-12-12T17:21:52.778Z,95159.84
2018-12-12T17:24:19.280Z,95167.20
2018-12-12T17:26:45.655Z,95164.08
2018-12-12T17:29:11.981Z,95171.93
2018-12-12T17:31:38.438Z,95166.19
2018-12-12T17:34:04.859Z,95176.31
2018-12-12T17:36:31.239Z,95179.47
2018-12-12T17:38:57.632Z,95183.94
2018-12-12T17:41:24.175Z,95180.52
2018-12-12T17:43:50.589Z,95180.78
2018-12-12T17:46:17.031Z,95183.10
2018-12-12T17:48:43.478Z,95188.15
2018-12-12T17:51:09.997Z,95181.58
2018-12-12T17:53:36.351Z,95184.98
2018-12-12T17:56:02.782Z,95176.80
2018-12-12T17:58:29.214Z,95173.27
2018-12-12T18:00:55.669Z,95166.70
2018-12-12T18:03:22.203Z,95166.02
2018-12-12T18:05:48.869Z,95169.64
2018-12-12T18:08:15.350Z,95166.59
2018-12-12T18:10:41.758Z,95167.06
2018-12-12T18:13:08.371Z,95169.88
2018-12-12T18:15:34.867Z,95167.06
2018-12-12T18:18:01.265Z,95168.97
2018-12-12T18:20:27.994Z,95170.02
2018-12-12T18:22:55.099Z,95165.33
2018-12-12T18:25:21.671Z,95167.66
2018-12-12T18:27:48.672Z,95166.37
2018-12-12T18:30:15.502Z,95165.34
2018-12-12T18:32:41.959Z,95166.97
2018-12-12T18:35:08.487Z,95181.38
2018-12-12T18:37:34.836Z,95195.46
2018-12-12T18:40:01.208Z,95189.57
2018-12-12T18:42:27.796Z,95195.56
2018-12-12T18:44:54.129Z,95202.70
2018-12-12T18:47:20.627Z,95201.55
2018-12-12T18:49:47.029Z,95200.50
2018-12-12T18:52:13.405Z,95207.97
2018-12-12T18:54:39.829Z,95206.22
2018-12-12T18:57:06.108Z,95202.94
2018-12-12T18:59:32.589Z,95198.36
2018-12-12T19:01:58.984Z,95208.33
2018-12-12T19:04:25.275Z,95205.75
2018-12-12T19:06:51.671Z,95208.20
2018-12-12T19:09:18.030Z,95210.42
2018-12-12T19:11:44.655Z,95214.38
2018-12-12T19:14:10.983Z,95208.77
2018-12-12T19:16:37.332Z,95215.64
2018-12-12T19:19:03.709Z,95218.02
2018-12-12T19:21:30.173Z,95221.98
2018-12-12T19:23:56.617Z,95225.85
2018-12-12T19:26:23.344Z,95220.70
2018-12-12T19:28:49.370Z,95224.33
2018-12-12T19:31:15.856Z,95222.81
2018-12-12T19:33:42.234Z,95219.50
2018-12-12T19:36:08.566Z,95217.62
2018-12-12T19:38:34.951Z,95223.23
2018-12-12T19:41:01.341Z,95223.73
2018-12-12T19:43:27.700Z,95227.09
2018-12-12T19:45:54.052Z,95221.84
2018-12-12T19:48:20.381Z,95217.84
2018-12-12T19:50:46.838Z,95217.95
2018-12-12T19:53:13.161Z,95215.37
2018-12-12T19:55:39.505Z,95218.17
2018-12-12T19:58:05.839Z,95208.46
2018-12-12T20:00:32.181Z,95214.30
2018-12-12T20:02:58.527Z,95213.70
2018-12-12T20:05:24.961Z,95209.97
2018-12-12T20:07:51.275Z,95208.78
2018-12-12T20:10:17.650Z,95209.09
2018-12-12T20:12:44.009Z,95204.08
2018-12-12T20:15:10.346Z,95204.27
2018-12-12T20:17:36.723Z,95207.42
2018-12-12T20:20:03.042Z,95213.04
2018-12-12T20:22:29.394Z,95210.59
2018-12-12T20:24:55.793Z,95209.86
2018-12-12T20:27:22.135Z,95206.95
2018-12-12T20:29:48.590Z,95205.63
2018-12-12T20:32:14.892Z,95208.92
2018-12-12T20:34:41.228Z,95210.41
2018-12-12T20:37:07.748Z,95211.73
2018-12-12T20:39:34.150Z,95211.69
2018-12-12T20:42:00.478Z,95213.39
2018-12-12T20:44:26.797Z,95211.55
2018-12-12T20:46:53.128Z,95218.81
2018-12-12T20:49:19.463Z,95213.66
2018-12-12T20:51:45.808Z,95219.37
2018-12-12T20:54:13.866Z,95217.84
2018-12-12T20:56:38.667Z,95217.58
2018-12-12T20:59:04.992Z,95212.91
2018-12-12T21:01:31.331Z,95213.36
2018-12-12T21:03:57.759Z,95216.63
2018-12-12T21:06:24.094Z,95215.01
2018-12-12T21:08:50.425Z,95215.93
2018-12-12T21:11:16.799Z,95213.80
2018-12-12T21:13:43.132Z,95210.86
2018-12-12T21:16:09.512Z,95213.56
2018-12-12T21:18:35.839Z,95223.48
2018-12-12T21:21:02.171Z,95216.92
2018-12-12T21:23:28.494Z,95214.94
2018-12-12T21:25:54.888Z,95212.95
2018-12-12T21:28:21.229Z,95220.45
2018-12-12T21:30:47.574Z,95221.95
2018-12-12T21:33:13.912Z,95220.06
2018-12-12T21:35:40.231Z,95225.64
2018-12-12T21:38:06.620Z,95230.66
2018-12-12T21:40:32.972Z,95229.28
2018-12-12T21:42:59.305Z,95231.34
2018-12-12T21:45:25.684Z,95230.49
2018-12-12T21:47:52.051Z,95230.46
2018-12-12T21:50:18.378Z,95226.39
2018-12-12T21:52:44.759Z,95232.67
2018-12-12T21:55:11.060Z,95230.77
2018-12-12T21:57:37.393Z,95233.92
2018-12-12T22:00:03.741Z,95231.81
2018-12-12T22:02:30.075Z,95235.97
2018-12-12T22:04:56.406Z,95235.42
2018-12-12T22:07:22.793Z,95231.56
2018-12-12T22:09:49.164Z,95229.20
2018-12-12T22:12:15.503Z,95227.77
2018-12-12T22:14:41.889Z,95223.05
2018-12-12T22:17:08.225Z,95221.92
2018-12-12T22:19:34.613Z,95229.66
2018-12-12T22:22:00.987Z,95225.62
2018-12-12T22:24:27.311Z,95223.23
2018-12-12T22:26:53.669Z,95221.95
2018-12-12T22:29:20.012Z,95220.97
2018-12-12T22:31:46.367Z,95226.02
2018-12-12T22:34:12.697Z,95226.94
2018-12-12T22:36:39.027Z,95224.58
2018-12-12T22:39:05.412Z,95226.08
2018-12-12T22:41:31.773Z,95225.92
2018-12-12T22:43:58.087Z,95218.45
2018-12-12T22:46:24.424Z,95222.52
2018-12-12T22:48:50.755Z,95224.79
2018-12-12T22:51:17.089Z,95220.78
2018-12-12T22:53:43.488Z,95223.72
2018-12-12T22:56:09.818Z,95215.84
2018-12-12T22:58:36.145Z,95213.48
2018-12-12T23:01:02.491Z,95211.84
2018-12-12T23:03:28.823Z,95212.72
2018-12-12T23:05:55.179Z,95217.77
2018-12-12T23:08:21.510Z,95220.55
2018-12-12T23:10:47.851Z,95225.11
2018-12-12T23:13:14.181Z,95218.69
2018-12-12T23:15:40.578Z,95222.20
2018-12-12T23:18:06.927Z,95220.18
2018-12-12T23:20:33.239Z,95221.30
2018-12-12T23:22:59.599Z,95224.45
2018-12-12T23:25:25.991Z,95222.66
2018-12-12T23:27:52.319Z,95220.80
2018-12-12T23:30:18.718Z,95220.80
2018-12-12T23:32:44.986Z,95218.60
2018-12-12T23:35:11.370Z,95217.16
2018-12-12T23:37:37.695Z,95217.73
2018-12-12T23:40:04.153Z,95219.36
2018-12-12T23:42:30.535Z,95223.67
2018-12-12T23:44:56.919Z,95235.34
2018-12-12T23:47:23.250Z,95236.02
2018-12-12T23:49:49.577Z,95234.61
2018-12-12T23:52:15.911Z,95228.52
2018-12-12T23:54:42.242Z,95230.51
2018-12-12T23:57:08.623Z,95233.19
2018-12-12T23:59:34.954Z,95230.46
